Time;durP1;ratioP1;P1;durP2;ratioP2;P2;SDS_P1;SDS_P2;PMS_P1;PMS_P2;Temp;Humidity;BMP_temperature;BMP_pressure;BME280_temperature;BME280_humidity;BME280_pressure;Samples;Min_cycle;Max_cycle;Signal;HPM_P1;HPM_P2
2023/01/01 00:00:32;;;;;;;2.60;2.37;;;;;;;12.04;99.25;98604.94;1576752;89;21489;-83
2023/01/01 00:03:00;;;;;;;4.70;2.55;;;;;;;12.03;99.16;98596.73;1584434;89;21483;-83
2023/01/01 00:05:27;;;;;;;2.10;1.85;;;;;;;12.03;99.14;98588.88;1583441;88;21102;-83
2023/01/01 00:07:56;;;;;;;2.50;2.00;;;;;;;12.02;99.19;98579.38;1593506;89;21589;-82
2023/01/01 00:10:28;;;;;;;3.80;2.25;;;;;;;12.03;99.35;98581.86;1572010;88;21073;-83
2023/01/01 00:12:56;;;;;;;3.27;2.00;;;;;;;12.07;99.36;98582.47;1571541;89;20967;-83
2023/01/01 00:15:24;;;;;;;2.52;2.33;;;;;;;12.06;99.46;98579.50;1570958;90;21125;-83
2023/01/01 00:17:59;;;;;;;2.83;2.27;;;;;;;12.08;99.54;98573.22;1549263;89;20976;-82
2023/01/01 00:20:25;;;;;;;4.17;3.17;;;;;;;12.11;99.59;98593.10;1574591;89;20990;-85
2023/01/01 00:22:54;;;;;;;3.23;2.73;;;;;;;12.15;99.60;98590.61;1573490;89;21106;-82
2023/01/01 00:25:23;;;;;;;4.58;2.87;;;;;;;12.16;99.97;98585.77;1571790;89;21046;-84
2023/01/01 00:27:54;;;;;;;5.97;2.87;;;;;;;12.19;100.00;98594.70;1573324;89;20990;-83
2023/01/01 00:30:23;;;;;;;5.47;2.87;;;;;;;12.20;99.99;98593.73;1571381;89;21532;-83
2023/01/01 00:32:50;;;;;;;3.17;2.85;;;;;;;12.20;99.99;98593.73;1589319;89;21030;-83
2023/01/01 00:35:17;;;;;;;3.43;2.70;;;;;;;12.33;99.92;98603.34;1572215;88;21084;-84
2023/01/01 00:37:44;;;;;;;3.60;2.85;;;;;;;12.33;99.77;98598.11;1568032;89;21041;-83
2023/01/01 00:40:11;;;;;;;3.12;2.70;;;;;;;12.33;99.76;98614.64;1567524;89;21101;-84
2023/01/01 00:42:40;;;;;;;4.08;2.60;;;;;;;12.35;99.70;98609.28;1573370;89;20998;-86
2023/01/01 00:45:07;;;;;;;4.60;2.70;;;;;;;12.34;99.64;98605.00;1571053;88;21055;-84
2023/01/01 00:47:34;;;;;;;3.58;2.60;;;;;;;12.35;99.55;98590.96;1589314;87;21012;-83
2023/01/01 00:50:05;;;;;;;3.70;2.83;;;;;;;12.35;99.69;98599.67;1566152;89;21103;-84
2023/01/01 00:52:36;;;;;;;3.00;2.50;;;;;;;12.35;99.65;98583.97;1573024;89;21069;-84
2023/01/01 00:55:02;;;;;;;4.95;2.83;;;;;;;12.37;99.55;98594.31;1570750;89;21042;-83
2023/01/01 00:57:34;;;;;;;3.15;2.40;;;;;;;12.38;99.57;98601.20;1572443;89;21102;-83
2023/01/01 01:00:10;;;;;;;3.22;2.20;;;;;;;12.40;99.61;98594.08;1586729;88;21030;-83
2023/01/01 01:02:42;;;;;;;3.67;2.42;;;;;;;12.40;99.59;98599.31;1566868;89;21587;-82
2023/01/01 01:05:09;;;;;;;3.98;2.10;;;;;;;12.40;99.57;98605.38;1570686;89;21085;-83
2023/01/01 01:07:37;;;;;;;4.20;2.12;;;;;;;12.29;99.55;98569.55;1581462;89;21054;-83
2023/01/01 01:10:05;;;;;;;2.58;1.92;;;;;;;12.43;99.62;98600.41;1558448;90;21002;-83
2023/01/01 01:12:33;;;;;;;5.17;3.15;;;;;;;12.45;99.67;98591.97;1569404;90;21017;-83
2023/01/01 01:15:00;;;;;;;4.85;2.20;;;;;;;12.47;99.77;98592.70;1564898;90;21003;-83
2023/01/01 01:17:28;;;;;;;2.35;1.87;;;;;;;12.51;99.78;98588.90;1565100;90;21071;-82
2023/01/01 01:19:54;;;;;;;4.05;1.82;;;;;;;12.56;99.85;98588.09;1564371;90;21021;-84
2023/01/01 01:22:21;;;;;;;3.65;1.70;;;;;;;12.61;99.87;98594.31;1568670;90;21015;-84
2023/01/01 01:24:48;;;;;;;3.10;1.83;;;;;;;12.66;99.83;98595.64;1571928;89;21037;-83
2023/01/01 01:27:14;;;;;;;6.00;2.05;;;;;;;12.70;99.80;98594.45;1550300;89;21115;-83
2023/01/01 01:29:41;;;;;;;3.00;1.80;;;;;;;12.75;99.73;98597.58;1566880;89;21061;-84
2023/01/01 01:32:08;;;;;;;4.13;1.80;;;;;;;12.79;99.64;98599.97;1568879;90;21040;-84
2023/01/01 01:34:35;;;;;;;;;;;;;;;12.81;99.63;98591.53;1569703;89;20978;-83
2023/01/01 01:37:01;;;;;;;3.40;1.80;;;;;;;12.84;99.57;98597.37;1537534;91;20176;-84
2023/01/01 01:39:28;;;;;;;5.42;1.80;;;;;;;12.86;99.55;98596.78;1568149;89;21034;-83
2023/01/01 01:41:55;;;;;;;4.93;1.90;;;;;;;12.88;99.50;98587.48;1587645;88;21024;-84
2023/01/01 01:44:49;;;;;;;3.37;1.40;;;;;;;12.90;99.52;98590.35;1580254;89;21027;-83
2023/01/01 01:47:24;;;;;;;2.92;1.50;;;;;;;12.94;99.54;98590.98;1569503;89;21029;-83
2023/01/01 01:50:02;;;;;;;3.17;1.65;;;;;;;12.99;99.43;98590.13;1563126;89;21025;-83
2023/01/01 01:52:31;;;;;;;2.95;1.75;;;;;;;13.01;99.40;98600.03;1560855;90;21556;-83
2023/01/01 01:55:00;;;;;;;3.52;1.87;;;;;;;13.05;99.34;98596.25;1561597;90;21110;-84
2023/01/01 01:57:28;;;;;;;2.20;1.70;;;;;;;13.07;99.19;98602.19;1562796;90;21445;-84
2023/01/01 01:59:57;;;;;;;3.80;1.80;;;;;;;13.10;99.15;98600.64;1562459;90;20988;-85
2023/01/01 02:02:49;;;;;;;4.95;2.05;;;;;;;13.11;99.01;98600.19;1567182;88;21517;-85
2023/01/01 02:05:18;;;;;;;2.95;1.67;;;;;;;13.12;98.91;98600.06;1554343;90;21101;-85
2023/01/01 02:07:45;;;;;;;2.85;1.90;;;;;;;13.09;99.04;98603.39;1585059;87;20999;-84
2023/01/01 02:10:11;;;;;;;5.03;2.05;;;;;;;13.11;98.85;98594.95;1585837;88;20973;-85
2023/01/01 02:12:38;;;;;;;6.47;1.97;;;;;;;13.10;98.63;98607.19;1589302;89;20938;-85
2023/01/01 02:15:07;;;;;;;5.13;2.20;;;;;;;13.10;98.49;98586.23;1594212;88;20987;-84
2023/01/01 02:17:57;;;;;;;3.52;1.90;;;;;;;13.07;98.40;98578.60;1575683;89;21535;-85
2023/01/01 02:20:35;;;;;;;5.00;1.70;;;;;;;13.04;98.27;98589.32;1589146;88;21065;-85
2023/01/01 02:23:38;;;;;;;4.65;2.00;;;;;;;13.02;98.20;98588.59;1572557;89;21042;-85
2023/01/01 02:26:16;;;;;;;5.85;1.80;;;;;;;13.00;98.15;98585.27;1564763;90;21105;-86
2023/01/01 02:29:05;;;;;;;3.72;2.10;;;;;;;13.00;97.95;98578.72;1587402;88;21087;-85
2023/01/01 02:31:37;;;;;;;3.70;1.95;;;;;;;12.98;97.78;98587.16;1591949;88;21011;-84
2023/01/01 02:34:08;;;;;;;3.00;1.80;;;;;;;12.95;97.71;98599.19;1572705;89;21649;-84
2023/01/01 02:36:39;;;;;;;3.40;2.02;;;;;;;12.95;97.72;98582.98;1569778;90;21031;-84
2023/01/01 02:39:08;;;;;;;5.22;2.83;;;;;;;12.97;97.66;98592.05;1568508;90;20948;-83
2023/01/01 02:41:40;;;;;;;3.58;1.95;;;;;;;12.99;97.43;98591.44;1587134;88;20952;-85
2023/01/01 02:44:07;;;;;;;2.47;1.60;;;;;;;12.97;97.05;98597.30;1589396;88;21038;-84
2023/01/01 02:46:35;;;;;;;4.28;1.80;;;;;;;12.95;97.03;98595.26;1562355;89;21071;-84
2023/01/01 02:49:03;;;;;;;4.80;2.52;;;;;;;12.95;96.88;98597.87;1572177;90;20988;-84
2023/01/01 02:51:53;;;;;;;2.45;1.87;;;;;;;12.95;96.87;98582.16;1588278;88;21049;-84
2023/01/01 02:54:34;;;;;;;2.42;1.77;;;;;;;12.97;96.66;98588.12;1586772;88;21014;-84
2023/01/01 03:00:34;;;;;;;5.95;2.08;;;;;;;12.98;96.25;98587.16;1506401;94;21124;-83
2023/01/01 03:03:11;;;;;;;4.30;2.00;;;;;;;13.00;96.19;98583.96;1489024;94;21049;-84
2023/01/01 03:09:24;;;;;;;8.63;2.37;;;;;;;13.07;95.89;98583.84;1507687;92;21533;-85
2023/01/01 03:12:05;;;;;;;4.20;2.33;;;;;;;13.05;95.55;98588.39;1459000;96;21588;-84
2023/01/01 03:15:00;;;;;;;4.53;2.22;;;;;;;13.00;95.40;98590.52;1460666;96;21081;-85
2023/01/01 03:17:40;;;;;;;6.33;2.65;;;;;;;13.01;95.32;98594.80;1438383;96;21111;-84
2023/01/01 03:20:12;;;;;;;3.62;2.17;;;;;;;13.03;95.04;98612.55;1458014;97;21120;-83
2023/01/01 03:22:41;;;;;;;3.72;1.92;;;;;;;13.04;94.93;98610.28;1458202;96;21129;-83
2023/01/01 03:25:21;;;;;;;5.15;2.60;;;;;;;13.08;94.74;98613.50;1450952;96;21103;-85
2023/01/01 03:28:11;;;;;;;6.22;2.65;;;;;;;13.09;94.70;98618.64;1457759;96;21552;-85
2023/01/01 03:30:41;;;;;;;6.42;2.85;;;;;;;13.12;94.55;98602.68;1450600;97;21103;-84
2023/01/01 03:33:42;;;;;;;5.10;2.30;;;;;;;13.13;94.37;98604.34;1455322;98;21065;-85
2023/01/01 03:36:20;;;;;;;4.42;1.90;;;;;;;13.15;94.31;98609.00;1425862;98;21084;-84
2023/01/01 03:39:00;;;;;;;6.83;2.42;;;;;;;13.15;93.96;98602.45;1470874;95;21122;-84
2023/01/01 03:41:35;;;;;;;4.35;2.67;;;;;;;13.16;93.72;98606.75;1491336;94;21582;-83
2023/01/01 03:44:10;;;;;;;5.22;2.12;;;;;;;13.18;93.48;98613.17;1497120;94;21082;-84
2023/01/01 03:46:37;;;;;;;3.77;2.02;;;;;;;13.18;93.41;98591.73;1487759;93;21033;-84
2023/01/01 03:49:06;;;;;;;4.03;2.50;;;;;;;13.19;93.30;98605.21;1497558;88;21100;-84
2023/01/01 03:52:03;;;;;;;10.70;2.80;;;;;;;13.20;93.13;98613.42;1557804;90;20987;-84
2023/01/01 03:55:05;;;;;;;5.40;2.37;;;;;;;13.22;92.97;98613.32;1600362;87;21007;-83
2023/01/01 03:57:52;;;;;;;8.50;2.30;;;;;;;13.23;92.73;98616.29;1581424;88;21054;-84
2023/01/01 04:00:29;;;;;;;6.80;2.37;;;;;;;13.26;92.57;98606.91;1580319;88;21133;-84
2023/01/01 04:03:17;;;;;;;;;;;;;;;13.28;92.37;98615.98;1589543;87;21088;-83
2023/01/01 04:05:44;;;;;;;2.67;1.82;;;;;;;13.29;92.14;98616.33;1546005;90;20492;-84
2023/01/01 04:08:12;;;;;;;7.62;2.52;;;;;;;13.27;91.79;98614.30;1550699;90;20976;-84
2023/01/01 04:10:44;;;;;;;5.40;2.20;;;;;;;13.29;91.68;98626.81;1582208;87;21132;-83
2023/01/01 04:13:10;;;;;;;5.55;2.02;;;;;;;13.29;91.51;98615.02;1606536;88;20995;-84
2023/01/01 04:15:39;;;;;;;4.83;2.03;;;;;;;13.30;91.41;98629.78;1581519;89;21090;-85
2023/01/01 04:18:08;;;;;;;5.67;2.25;;;;;;;13.23;91.33;98590.56;1565348;89;21458;-84
2023/01/01 04:20:36;;;;;;;5.47;2.30;;;;;;;13.30;91.10;98625.85;1582729;88;20962;-84
2023/01/01 04:23:06;;;;;;;5.60;2.00;;;;;;;13.31;91.01;98631.48;1583638;89;21038;-83
2023/01/01 04:25:38;;;;;;;5.35;2.60;;;;;;;13.34;90.86;98629.93;1582773;89;21025;-84
2023/01/01 04:28:04;;;;;;;5.87;2.37;;;;;;;13.36;90.75;98633.25;1571113;89;21085;-85
2023/01/01 04:30:31;;;;;;;4.37;2.20;;;;;;;13.37;90.37;98629.70;1583584;89;21500;-83
2023/01/01 04:32:57;;;;;;;5.83;2.00;;;;;;;13.37;90.49;98623.97;1581861;88;21588;-84
2023/01/01 04:35:24;;;;;;;5.23;2.30;;;;;;;13.41;90.27;98627.19;1581662;88;21255;-84
2023/01/01 04:37:57;;;;;;;3.05;2.02;;;;;;;13.44;90.21;98620.39;1579273;88;21070;-84
2023/01/01 04:40:24;;;;;;;5.25;2.15;;;;;;;13.46;89.99;98605.86;1581176;88;21024;-84
2023/01/01 04:42:54;;;;;;;5.80;2.33;;;;;;;13.44;89.66;98604.66;1582084;89;20992;-84
2023/01/01 04:45:21;;;;;;;7.30;2.35;;;;;;;13.37;89.32;98609.55;1580886;88;21704;-84
2023/01/01 04:47:47;;;;;;;3.20;1.93;;;;;;;13.30;89.19;98604.88;1571729;89;21046;-84
2023/01/01 04:50:14;;;;;;;7.20;2.37;;;;;;;13.21;88.95;98620.32;1574115;88;21568;-84
2023/01/01 04:52:40;;;;;;;4.60;1.90;;;;;;;13.13;88.75;98630.55;1610616;86;20948;-83
2023/01/01 04:55:08;;;;;;;5.93;2.50;;;;;;;13.05;88.60;98618.52;1664580;85;20975;-84
2023/01/01 04:57:34;;;;;;;5.33;2.30;;;;;;;12.98;88.49;98636.95;1660767;85;20971;-84
2023/01/01 05:00:01;;;;;;;4.20;1.90;;;;;;;12.91;88.29;98622.63;1658758;85;21037;-85
2023/01/01 05:02:28;;;;;;;6.95;2.10;;;;;;;12.87;88.31;98636.91;1662466;85;21423;-84
2023/01/01 05:04:54;;;;;;;4.58;2.20;;;;;;;12.86;88.14;98639.17;1648053;85;21057;-84
2023/01/01 05:07:21;;;;;;;6.60;2.10;;;;;;;12.82;87.86;98646.89;1648903;85;21453;-84
2023/01/01 05:09:48;;;;;;;5.97;2.87;;;;;;;12.80;87.71;98654.02;1649977;85;21472;-83
2023/01/01 05:12:14;;;;;;;13.23;2.93;;;;;;;12.73;87.64;98654.47;1631704;86;20959;-84
2023/01/01 05:14:41;;;;;;;9.50;2.50;;;;;;;12.71;87.68;98657.66;1644247;85;20985;-83
2023/01/01 05:17:07;;;;;;;4.73;2.17;;;;;;;12.71;87.54;98661.59;1657267;85;21056;-83
2023/01/01 05:19:39;;;;;;;7.70;2.57;;;;;;;12.71;87.59;98674.69;1663887;85;21008;-84
2023/01/01 05:23:11;;;;;;;5.97;2.42;;;;;;;12.73;87.53;98668.88;1665040;85;21008;-84
2023/01/01 05:25:13;;;;;;;6.15;2.70;;;;;;;12.76;87.42;98667.34;1609764;85;21022;-84
2023/01/01 05:27:39;;;;;;;4.87;1.72;;;;;;;12.83;87.39;98666.91;1641519;85;21599;-84
2023/01/01 05:30:07;;;;;;;5.57;2.63;;;;;;;12.92;87.34;98658.37;1647024;85;21025;-84
2023/01/01 05:32:36;;;;;;;6.72;2.25;;;;;;;13.00;87.24;98682.22;1644198;85;20955;-84
2023/01/01 05:35:03;;;;;;;5.85;2.33;;;;;;;13.07;87.07;98675.56;1647438;85;21015;-83
2023/01/01 05:37:30;;;;;;;;;;;;;;;13.15;86.94;98681.07;1651606;85;20946;-84
2023/01/01 05:39:56;;;;;;;7.10;2.93;;;;;;;13.25;86.59;98685.62;1650092;85;20382;-84
2023/01/01 05:42:52;;;;;;;5.30;2.20;;;;;;;13.30;86.55;98688.77;1649190;85;21026;-83
2023/01/01 05:47:58;;;;;;;11.57;3.27;;;;;;;13.40;86.18;98674.03;1590468;85;21003;-84
2023/01/01 05:50:30;;;;;;;5.17;2.92;;;;;;;13.41;86.01;98652.09;1642786;85;21003;-84
2023/01/01 05:52:55;;;;;;;6.37;2.30;;;;;;;13.41;85.74;98636.36;1642266;85;21012;-85
2023/01/01 05:57:54;;;;;;;8.38;2.80;;;;;;;13.36;85.26;98662.09;1613225;86;20971;-84
2023/01/01 06:00:22;;;;;;;5.33;3.15;;;;;;;13.35;85.19;98660.43;1631591;86;21026;-84
2023/01/01 06:02:50;;;;;;;10.88;3.90;;;;;;;13.34;85.04;98646.97;1632524;86;21016;-84
2023/01/01 06:05:17;;;;;;;7.33;3.35;;;;;;;13.33;84.83;98654.45;1631752;86;21009;-84
2023/01/01 06:08:00;;;;;;;10.00;3.33;;;;;;;13.32;84.64;98669.84;1636533;86;20988;-85
2023/01/01 06:10:26;;;;;;;5.47;3.42;;;;;;;13.30;84.38;98663.87;1607375;87;20990;-84
2023/01/01 06:12:57;;;;;;;6.37;3.50;;;;;;;13.24;84.20;98674.78;1635058;86;21520;-84
2023/01/01 06:15:23;;;;;;;8.40;3.85;;;;;;;13.19;83.94;98676.43;1631435;86;21592;-84
2023/01/01 06:17:59;;;;;;;7.78;3.50;;;;;;;13.21;84.01;98696.34;1632364;86;21716;-84
2023/01/01 06:20:25;;;;;;;6.10;3.60;;;;;;;13.25;84.10;98685.62;1636139;86;21012;-84
2023/01/01 06:22:52;;;;;;;11.17;4.03;;;;;;;13.30;83.97;98696.16;1633981;86;21158;-84
2023/01/01 06:25:18;;;;;;;6.00;3.20;;;;;;;13.35;83.85;98704.52;1634826;86;21476;-84
2023/01/01 06:27:45;;;;;;;6.62;3.92;;;;;;;13.39;83.79;98703.83;1632912;86;20939;-83
2023/01/01 06:30:12;;;;;;;7.77;4.10;;;;;;;13.41;83.75;98713.70;1635108;86;21434;-84
2023/01/01 06:32:52;;;;;;;10.18;4.78;;;;;;;13.45;83.59;98721.72;1606727;87;21004;-84
2023/01/01 06:35:21;;;;;;;9.43;4.62;;;;;;;13.51;83.52;98721.26;1609578;86;21517;-84
2023/01/01 06:37:47;;;;;;;6.83;4.40;;;;;;;13.54;83.28;98726.27;1633400;86;21006;-83
2023/01/01 06:40:14;;;;;;;9.90;4.17;;;;;;;13.56;83.26;98729.62;1634928;86;21051;-86
2023/01/01 06:42:41;;;;;;;10.72;5.08;;;;;;;13.58;83.13;98731.66;1634025;86;21043;-85
2023/01/01 06:45:08;;;;;;;9.07;5.37;;;;;;;13.59;82.92;98743.81;1635218;86;20965;-84
2023/01/01 06:47:36;;;;;;;11.78;4.85;;;;;;;13.58;82.84;98742.15;1632245;86;20984;-85
2023/01/01 06:50:04;;;;;;;9.53;4.53;;;;;;;13.58;82.69;98752.64;1631195;86;21106;-85
2023/01/01 06:52:31;;;;;;;11.48;5.30;;;;;;;13.60;82.73;98738.91;1621077;87;21028;-85
2023/01/01 06:54:58;;;;;;;8.33;5.37;;;;;;;13.62;82.68;98734.39;1622775;87;20986;-84
2023/01/01 06:57:24;;;;;;;11.60;4.97;;;;;;;13.62;82.46;98747.52;1620606;87;21001;-83
2023/01/01 06:59:51;;;;;;;11.17;4.73;;;;;;;13.63;82.32;98746.55;1620230;87;21054;-84
2023/01/01 07:02:17;;;;;;;10.33;4.97;;;;;;;13.62;82.06;98743.58;1626466;87;21001;-84
2023/01/01 07:04:44;;;;;;;9.73;5.10;;;;;;;13.65;82.17;98756.45;1618910;87;21061;-85
2023/01/01 07:07:10;;;;;;;8.93;4.30;;;;;;;13.66;82.12;98769.92;1619011;87;21023;-84
2023/01/01 07:09:37;;;;;;;7.20;3.93;;;;;;;13.63;81.97;98756.20;1617466;87;21089;-84
2023/01/01 07:12:04;;;;;;;14.30;4.80;;;;;;;13.60;81.78;98757.27;1618990;87;21652;-83
2023/01/01 07:14:30;;;;;;;9.20;4.75;;;;;;;13.57;81.62;98768.00;1622309;87;21032;-83
2023/01/01 07:16:57;;;;;;;12.03;4.20;;;;;;;13.54;81.53;98772.16;1620393;87;20988;-83
2023/01/01 07:19:23;;;;;;;10.37;4.30;;;;;;;13.53;81.38;98772.30;1613610;87;21299;-83
2023/01/01 07:21:54;;;;;;;8.63;3.73;;;;;;;13.54;81.18;98762.16;1624376;87;20954;-84
2023/01/01 07:24:21;;;;;;;11.85;4.58;;;;;;;13.50;81.05;98764.17;1619510;87;21028;-83
2023/01/01 07:27:09;;;;;;;;;;;;;;;;;;;;;
2023/01/01 07:29:29;;;;;;;8.28;3.87;;;;;;;13.47;80.88;98759.16;1439333;97;21034;-84
2023/01/01 07:31:56;;;;;;;15.68;5.67;;;;;;;13.45;80.86;98770.71;1434723;98;21110;-84
2023/01/01 07:34:25;;;;;;;9.27;4.03;;;;;;;13.43;80.78;98786.55;1438440;97;21459;-84
2023/01/01 07:36:55;;;;;;;8.45;3.83;;;;;;;13.40;80.68;98795.95;1437512;97;21003;-84
2023/01/01 07:39:22;;;;;;;5.22;3.45;;;;;;;13.40;80.67;98792.84;1436930;98;21556;-84
2023/01/01 07:41:48;;;;;;;5.20;3.62;;;;;;;13.42;80.67;98779.64;1438091;97;21077;-84
2023/01/01 07:44:15;;;;;;;14.37;4.27;;;;;;;13.46;80.57;98796.80;1435785;98;21176;-85
2023/01/01 07:46:41;;;;;;;9.98;3.75;;;;;;;13.48;80.49;98790.98;1436546;98;21145;-84
2023/01/01 07:49:08;;;;;;;8.60;3.87;;;;;;;13.49;80.44;98795.27;1436616;97;21110;-84
2023/01/01 07:51:35;;;;;;;6.03;3.17;;;;;;;13.49;80.43;98796.58;1475383;94;21236;-84
2023/01/01 07:54:01;;;;;;;8.60;3.40;;;;;;;13.54;80.36;98806.25;1481738;94;21116;-84
2023/01/01 07:56:30;;;;;;;13.40;3.73;;;;;;;13.58;80.42;98805.09;1500848;93;21215;-84
2023/01/01 07:58:56;;;;;;;9.95;4.65;;;;;;;13.66;80.30;98793.53;1500942;93;21761;-83
2023/01/01 08:01:23;;;;;;;17.03;3.60;;;;;;;13.73;80.21;98803.59;1499865;95;21007;-84
2023/01/01 08:03:51;;;;;;;7.47;3.30;;;;;;;13.80;80.11;98798.22;1493976;95;21346;-84
2023/01/01 08:06:18;;;;;;;6.78;3.00;;;;;;;13.85;79.96;98806.59;1536332;84;21681;-83
2023/01/01 08:08:44;;;;;;;6.30;2.97;;;;;;;13.88;79.87;98802.42;1688475;83;21043;-83
2023/01/01 08:11:11;;;;;;;7.63;3.73;;;;;;;13.90;79.85;98811.02;1693626;83;21061;-85
2023/01/01 08:13:37;;;;;;;7.07;3.23;;;;;;;13.93;79.85;98818.66;1681902;83;21024;-84
2023/01/01 08:16:07;;;;;;;9.63;3.43;;;;;;;13.95;79.69;98809.34;1661292;84;21390;-84
2023/01/01 08:18:34;;;;;;;8.53;3.37;;;;;;;13.99;79.59;98818.19;1639054;85;20968;-83
2023/01/01 08:21:03;;;;;;;11.03;4.25;;;;;;;14.00;79.51;98819.89;1681818;83;20989;-84
2023/01/01 08:23:30;;;;;;;6.00;3.05;;;;;;;13.99;79.22;98825.23;1687178;83;21045;-84
2023/01/01 08:26:01;;;;;;;6.80;2.97;;;;;;;13.98;79.16;98833.59;1688516;83;21018;-84
2023/01/01 08:28:31;;;;;;;7.87;3.45;;;;;;;13.97;79.15;98838.45;1685880;83;21540;-84
2023/01/01 08:30:58;;;;;;;8.73;3.20;;;;;;;13.99;79.04;98823.44;1689605;83;20978;-85
2023/01/01 08:33:25;;;;;;;6.45;3.08;;;;;;;14.00;78.94;98840.88;1690498;83;20997;-84
2023/01/01 08:35:51;;;;;;;12.58;3.10;;;;;;;14.03;78.88;98832.77;1695257;83;21511;-84
2023/01/01 08:38:18;;;;;;;6.70;3.35;;;;;;;14.06;78.78;98825.97;1688239;83;21506;-83
2023/01/01 08:40:45;;;;;;;6.23;3.40;;;;;;;14.14;78.56;98833.73;1683468;83;21007;-84
2023/01/01 08:43:14;;;;;;;4.40;2.70;;;;;;;14.18;78.48;98819.43;1690793;83;21264;-84
2023/01/01 08:45:41;;;;;;;5.25;3.33;;;;;;;14.20;78.24;98834.12;1690724;83;21061;-84
2023/01/01 08:48:10;;;;;;;5.70;3.47;;;;;;;14.22;78.06;98840.06;1685416;83;21089;-85
2023/01/01 08:50:43;;;;;;;7.05;2.72;;;;;;;14.23;77.84;98840.92;1690573;83;21418;-85
2023/01/01 08:53:10;;;;;;;7.33;3.10;;;;;;;14.22;77.41;98841.86;1680908;81;21077;-85
2023/01/01 08:55:36;;;;;;;7.33;3.10;;;;;;;14.19;77.53;98848.66;1691731;83;21108;-83
2023/01/01 08:58:06;;;;;;;5.17;3.00;;;;;;;14.18;77.38;98853.56;1653952;84;21543;-86
2023/01/01 09:00:33;;;;;;;4.87;2.67;;;;;;;14.19;77.26;98849.97;1657092;84;21017;-84
2023/01/01 09:02:59;;;;;;;5.10;2.73;;;;;;;14.16;77.23;98860.70;1651183;85;21490;-85
2023/01/01 09:05:26;;;;;;;7.55;3.20;;;;;;;14.20;76.96;98850.31;1686394;83;21969;-85
2023/01/01 09:07:52;;;;;;;4.97;2.83;;;;;;;14.23;77.04;98844.86;1692871;83;21532;-84
2023/01/01 09:10:23;;;;;;;5.73;3.33;;;;;;;14.30;77.02;98850.81;1686450;83;21584;-84
2023/01/01 09:12:51;;;;;;;5.53;2.90;;;;;;;14.38;76.96;98849.41;1687384;83;20978;-87
2023/01/01 09:15:18;;;;;;;5.00;3.00;;;;;;;14.40;76.81;98853.59;1686748;83;20985;-86
2023/01/01 09:17:55;;;;;;;9.43;2.95;;;;;;;14.42;76.66;98883.17;1690039;83;20964;-85
2023/01/01 09:20:16;;;;;;;6.72;3.30;;;;;;;14.42;76.51;98875.30;1656816;83;21547;-85
2023/01/01 09:22:43;;;;;;;8.50;3.47;;;;;;;14.32;76.50;98855.48;1688829;83;20990;-85
2023/01/01 09:25:09;;;;;;;5.57;2.77;;;;;;;14.32;76.50;98855.48;1657192;84;21480;-85
2023/01/01 09:27:36;;;;;;;8.73;3.23;;;;;;;14.42;76.26;98880.55;1660290;84;21681;-84
2023/01/01 09:30:03;;;;;;;5.57;3.17;;;;;;;14.45;76.14;98869.84;1670333;84;21309;-84
2023/01/01 09:32:29;;;;;;;;;;;;;;;14.45;75.96;98856.70;1693692;83;21037;-84
2023/01/01 09:34:56;;;;;;;8.73;3.33;;;;;;;14.48;75.85;98859.09;1697346;83;20465;-85
2023/01/01 09:37:23;;;;;;;11.43;3.85;;;;;;;14.40;75.76;98847.03;1683080;83;21567;-85
2023/01/01 09:39:50;;;;;;;7.08;3.65;;;;;;;14.52;75.65;98880.25;1682786;83;21155;-85
2023/01/01 09:42:39;;;;;;;10.47;3.50;;;;;;;14.55;75.58;98880.01;1682921;83;21047;-87
2023/01/01 09:45:29;;;;;;;6.60;4.03;;;;;;;14.46;75.43;98871.50;1687535;83;22092;-85
2023/01/01 09:48:10;;;;;;;7.95;3.62;;;;;;;14.66;75.06;98879.67;1680572;83;21021;-82
2023/01/01 09:50:44;;;;;;;8.40;4.12;;;;;;;14.72;74.90;98884.44;1686330;83;21157;-84
2023/01/01 09:53:31;;;;;;;5.95;3.55;;;;;;;14.81;74.88;98885.03;1685131;83;20999;-84
2023/01/01 09:56:04;;;;;;;10.23;3.20;;;;;;;14.85;74.63;98879.91;1680753;83;20982;-84
2023/01/01 09:58:36;;;;;;;9.78;3.58;;;;;;;14.92;74.66;98867.94;1657255;83;20970;-84
2023/01/01 10:01:26;;;;;;;6.53;3.70;;;;;;;14.96;74.62;98856.25;1687115;83;21497;-84
2023/01/01 10:04:30;;;;;;;10.32;4.30;;;;;;;15.00;74.54;98862.92;1683068;83;20990;-83
2023/01/01 10:07:25;;;;;;;7.17;3.40;;;;;;;15.01;74.35;98854.55;1655418;84;21032;-83
2023/01/01 10:10:34;;;;;;;5.78;3.15;;;;;;;15.02;74.18;98861.98;1688971;83;20987;-83
2023/01/01 10:13:21;;;;;;;5.78;2.98;;;;;;;14.99;73.84;98858.63;1659452;83;21006;-83
2023/01/01 10:16:05;;;;;;;7.17;3.40;;;;;;;15.02;73.90;98863.30;1684553;83;21060;-83
2023/01/01 10:18:39;;;;;;;6.90;3.30;;;;;;;15.05;73.81;98864.36;1644692;83;21094;-83
2023/01/01 10:21:26;;;;;;;7.35;2.87;;;;;;;15.08;73.76;98861.48;1622377;86;21469;-83
2023/01/01 10:24:22;;;;;;;10.10;3.75;;;;;;;15.10;73.58;98867.47;1637296;86;21041;-82
2023/01/01 10:26:52;;;;;;;10.80;4.30;;;;;;;15.06;73.27;98876.54;1635223;86;21593;-83
2023/01/01 10:29:24;;;;;;;5.65;3.25;;;;;;;15.02;73.03;98868.55;1638233;86;21035;-84
2023/01/01 10:32:26;;;;;;;9.35;3.12;;;;;;;14.99;72.97;98877.03;1635437;85;21582;-84
2023/01/01 10:34:52;;;;;;;6.35;2.87;;;;;;;14.98;72.67;98883.25;1651684;85;21080;-84
2023/01/01 10:37:20;;;;;;;12.15;3.15;;;;;;;14.99;72.63;98880.97;1648669;85;21101;-83
2023/01/01 10:40:14;;;;;;;6.12;3.00;;;;;;;15.04;72.48;98890.27;1646191;84;21017;-83
2023/01/01 10:42:34;;;;;;;8.28;3.67;;;;;;;15.07;72.42;98890.03;1648331;84;21475;-83
2023/01/01 10:45:04;;;;;;;8.68;3.37;;;;;;;15.09;72.25;98868.41;1627063;86;21044;-83
2023/01/01 10:47:30;;;;;;;9.75;3.95;;;;;;;15.10;72.04;98888.50;1645151;85;21343;-83
2023/01/01 10:50:01;;;;;;;7.85;3.00;;;;;;;15.09;71.85;98872.34;1653137;85;20987;-83
2023/01/01 10:52:39;;;;;;;10.78;3.55;;;;;;;15.09;71.41;98868.41;1648193;85;20971;-83
2023/01/01 10:55:24;;;;;;;7.15;3.08;;;;;;;15.08;71.17;98877.27;1662686;83;20990;-83
2023/01/01 10:57:55;;;;;;;7.30;3.75;;;;;;;14.98;70.99;98874.05;1689697;83;21439;-83
2023/01/01 11:00:31;;;;;;;5.83;3.20;;;;;;;14.96;70.95;98866.77;1691043;83;21490;-83
2023/01/01 11:03:20;;;;;;;9.23;2.87;;;;;;;14.91;70.60;98866.28;1686575;83;20978;-83
2023/01/01 11:09:53;;;;;;;;;;;;;;;;;;;;;
2023/01/01 11:12:31;;;;;;;7.72;3.75;;;;;;;14.90;69.76;98904.05;1613874;87;21524;-84
2023/01/01 11:14:59;;;;;;;6.03;2.87;;;;;;;14.89;69.72;98910.23;1620631;87;21123;-84
2023/01/01 11:17:40;;;;;;;9.40;2.95;;;;;;;14.88;69.57;98908.58;1615255;87;21102;-84
2023/01/01 11:20:18;;;;;;;5.17;2.52;;;;;;;14.89;69.43;98918.13;1614457;87;21060;-84
2023/01/01 11:22:51;;;;;;;8.28;3.55;;;;;;;14.87;69.24;98884.58;1616877;87;21223;-84
2023/01/01 11:25:26;;;;;;;5.17;3.10;;;;;;;14.82;68.95;98909.06;1594952;87;21018;-84
2023/01/01 11:28:27;;;;;;;8.13;2.87;;;;;;;14.80;68.82;98908.34;1626034;87;21107;-84
2023/01/01 11:31:17;;;;;;;6.37;3.10;;;;;;;14.77;68.71;98926.97;1585664;88;21093;-84
2023/01/01 11:34:06;;;;;;;;;;;;;;;;;;;;;
2023/01/01 11:36:33;;;;;;;5.10;2.95;;;;;;;14.70;68.42;98924.44;1567260;88;21132;-84
2023/01/01 11:39:31;;;;;;;6.33;2.87;;;;;;;14.65;68.26;98921.36;1588847;88;21037;-84
2023/01/01 11:42:03;;;;;;;6.80;2.83;;;;;;;14.62;67.82;98941.27;1543458;91;21001;-84
2023/01/01 11:44:43;;;;;;;8.60;2.87;;;;;;;14.58;67.81;98939.84;1519527;93;21545;-84
2023/01/01 11:47:46;;;;;;;9.68;3.25;;;;;;;14.58;67.78;98958.23;1528272;92;21063;-84
2023/01/01 11:50:40;;;;;;;9.18;2.95;;;;;;;14.57;67.81;98954.77;1526809;92;21058;-84
2023/01/01 11:53:37;;;;;;;8.40;2.98;;;;;;;14.53;67.54;98956.77;1532666;91;21588;-83
2023/01/01 11:56:28;;;;;;;4.90;2.58;;;;;;;14.50;67.41;98928.56;1540710;91;21134;-83
2023/01/01 11:59:28;;;;;;;5.28;2.55;;;;;;;14.47;67.49;98954.59;1533900;92;21070;-83
2023/01/01 12:02:36;;;;;;;4.03;2.15;;;;;;;14.46;67.31;98939.79;1532942;92;21551;-82
2023/01/01 12:05:53;;;;;;;7.37;2.87;;;;;;;14.45;67.23;98943.38;1530948;92;21035;-82
2023/01/01 12:09:01;;;;;;;8.83;2.50;;;;;;;14.43;67.20;98957.09;1481069;95;21174;-82
2023/01/01 12:11:47;;;;;;;5.60;3.00;;;;;;;14.43;67.26;98976.80;1465939;96;21041;-83
2023/01/01 12:14:48;;;;;;;6.62;2.20;;;;;;;14.44;67.21;98964.50;1490316;95;22057;-81
2023/01/01 12:17:52;;;;;;;3.65;2.27;;;;;;;14.41;66.37;98955.05;1484498;95;21057;-82
2023/01/01 12:20:40;;;;;;;6.95;2.70;;;;;;;14.39;66.88;98977.13;1470890;95;21081;-82